Time;durP1;ratioP1;P1;durP2;ratioP2;P2;SDS_P1;SDS_P2;PMS_P1;PMS_P2;Temp;Humidity;BMP_temperature;BMP_pressure;BME280_temperature;BME280_humidity;BME280_pressure;Samples;Min_cycle;Max_cycle;Signal;HPM_P1;HPM_P2
2022/05/19 00:02:15;;;;;;;11.93;4.80;;;7.40;99.90;;;;;;8328282;28;20213;-78
2022/05/19 00:06:16;;;;;;;9.30;5.47;;;7.30;1.00;;;;;;8326272;28;20197;-78
2022/05/19 00:10:17;;;;;;;10.63;5.57;;;7.20;1.00;;;;;;8328900;28;20220;-78
2022/05/19 00:14:19;;;;;;;7.63;3.80;;;7.10;1.00;;;;;;8324702;28;20186;-77
2022/05/19 00:18:19;;;;;;;4.87;2.83;;;7.00;1.00;;;;;;8344023;28;20236;-78
2022/05/19 00:22:20;;;;;;;4.97;2.63;;;6.90;1.00;;;;;;8326365;28;20269;-78
2022/05/19 00:26:21;;;;;;;4.93;2.47;;;6.80;19.30;;;;;;8327737;28;20186;-77
2022/05/19 00:30:22;;;;;;;3.13;2.20;;;6.70;60.80;;;;;;8328410;28;20208;-77
2022/05/19 00:34:23;;;;;;;2.43;1.90;;;6.70;99.90;;;;;;8326293;28;20281;-78
2022/05/19 00:38:24;;;;;;;3.57;2.20;;;6.60;99.90;;;;;;8334262;28;20253;-77
2022/05/19 00:42:43;;;;;;;3.63;2.13;;;6.50;99.90;;;;;;8327222;28;20178;-77
2022/05/19 00:46:53;;;;;;;4.40;2.00;;;6.30;99.90;;;;;;8323222;28;20183;-76
2022/05/19 00:51:04;;;;;;;3.60;2.27;;;6.20;99.90;;;;;;8331661;28;20214;-78
2022/05/19 00:55:36;;;;;;;5.23;2.67;;;6.10;1.00;;;;;;8345145;28;20186;-78
2022/05/19 00:59:47;;;;;;;3.97;2.07;;;5.90;1.00;;;;;;8301558;28;20220;-77
2022/05/19 01:03:55;;;;;;;3.10;1.83;;;5.90;1.00;;;;;;8335250;28;20191;-76
2022/05/19 01:08:10;;;;;;;3.50;2.10;;;5.80;1.00;;;;;;8329626;28;20179;-77
2022/05/19 01:12:11;;;;;;;2.57;2.03;;;5.80;1.00;;;;;;8346519;28;20185;-77
2022/05/19 01:16:13;;;;;;;4.00;2.30;;;5.70;24.10;;;;;;8332363;28;20293;-77
2022/05/19 01:20:23;;;;;;;4.73;2.67;;;5.70;73.80;;;;;;8322195;28;20277;-77
2022/05/19 01:24:34;;;;;;;5.33;3.00;;;5.70;99.90;;;;;;8326593;28;20263;-78
2022/05/19 01:28:35;;;;;;;3.30;2.27;;;5.70;99.90;;;;;;8322201;28;20283;-77
2022/05/19 01:32:36;;;;;;;5.83;3.00;;;5.60;99.90;;;;;;8333254;28;20183;-79
2022/05/19 01:36:37;;;;;;;5.37;2.63;;;5.60;99.90;;;;;;8325765;28;20203;-78
2022/05/19 01:41:18;;;;;;;5.67;2.63;;;5.60;99.90;;;;;;8332210;28;20198;-77
2022/05/19 01:45:37;;;;;;;5.23;2.73;;;5.60;99.90;;;;;;8344991;28;20224;-77
2022/05/19 01:49:50;;;;;;;4.17;2.77;;;5.50;99.90;;;;;;8339446;28;20197;-78
2022/05/19 01:54:24;;;;;;;4.30;2.43;;;5.40;99.90;;;;;;8321126;28;20197;-77
2022/05/19 01:58:25;;;;;;;2.40;2.17;;;5.30;99.90;;;;;;8331830;28;20245;-77
2022/05/19 02:02:44;;;;;;;4.60;2.63;;;5.20;1.00;;;;;;8327460;28;20268;-76
2022/05/19 02:07:00;;;;;;;3.50;2.20;;;5.10;1.00;;;;;;8326132;28;20190;-78
2022/05/19 02:11:05;;;;;;;5.20;2.20;;;4.90;1.00;;;;;;8330323;28;20179;-77
2022/05/19 02:15:10;;;;;;;4.73;2.93;;;4.80;1.00;;;;;;8323530;28;20260;-78
2022/05/19 02:19:16;;;;;;;4.83;3.23;;;4.70;62.90;;;;;;8339170;28;20216;-77
2022/05/19 02:23:17;;;;;;;4.30;2.70;;;4.70;99.90;;;;;;8325382;28;20671;-77
2022/05/19 02:27:32;;;;;;;3.67;2.60;;;4.70;99.90;;;;;;8324601;28;20205;-77
2022/05/19 02:31:33;;;;;;;6.43;2.97;;;4.70;99.90;;;;;;8337927;28;20185;-77
2022/05/19 02:35:35;;;;;;;4.70;2.33;;;4.70;99.90;;;;;;8319477;28;20182;-79
2022/05/19 02:39:35;;;;;;;5.03;2.60;;;4.70;99.90;;;;;;8322636;28;20271;-78
2022/05/19 02:43:36;;;;;;;4.90;2.70;;;4.70;1.00;;;;;;8341256;28;20186;-78
2022/05/19 02:47:37;;;;;;;4.00;2.50;;;4.70;1.00;;;;;;8327807;28;20186;-78
2022/05/19 02:51:38;;;;;;;4.70;2.40;;;4.60;1.00;;;;;;8321027;28;20320;-78
2022/05/19 02:55:40;;;;;;;3.53;2.00;;;4.60;1.00;;;;;;8325109;28;20246;-78
2022/05/19 02:59:41;;;;;;;4.20;2.83;;;4.60;20.10;;;;;;8322954;28;20210;-77
2022/05/19 03:03:42;;;;;;;4.43;2.57;;;4.60;36.40;;;;;;8323762;28;20190;-77
2022/05/19 03:07:43;;;;;;;4.23;2.90;;;4.60;97.30;;;;;;8313060;28;20194;-78
2022/05/19 03:11:43;;;;;;;3.40;2.67;;;4.60;99.90;;;;;;8328080;28;20190;-78
2022/05/19 03:15:45;;;;;;;5.17;2.77;;;4.60;99.90;;;;;;8318139;28;20247;-77
2022/05/19 03:19:46;;;;;;;4.83;2.43;;;4.70;99.90;;;;;;8322993;28;20223;-78
2022/05/19 03:23:47;;;;;;;5.07;2.73;;;4.80;99.90;;;;;;8324504;28;20189;-75
2022/05/19 03:27:47;;;;;;;3.93;2.33;;;5.00;99.90;;;;;;8322694;28;20202;-75
2022/05/19 03:31:48;;;;;;;4.70;3.03;;;5.20;1.00;;;;;;8336484;28;20220;-76
2022/05/19 03:35:56;;;;;;;6.17;3.10;;;5.40;99.90;;;;;;8329084;28;20231;-79
2022/05/19 03:39:57;;;;;;;3.93;2.80;;;5.50;99.90;;;;;;8317260;28;20255;-79
2022/05/19 03:43:59;;;;;;;4.83;2.77;;;5.60;99.90;;;;;;8305029;28;20212;-80
2022/05/19 03:48:00;;;;;;;5.53;2.43;;;5.90;85.70;;;;;;8318444;28;20561;-75
2022/05/19 03:52:01;;;;;;;4.23;2.77;;;6.90;99.90;;;;;;8321574;28;20215;-77
2022/05/19 03:56:02;;;;;;;5.33;3.17;;;8.10;1.00;;;;;;8326287;28;20187;-76
2022/05/19 04:00:05;;;;;;;4.33;3.13;;;9.00;1.00;;;;;;8320384;28;20182;-76
2022/05/19 04:04:07;;;;;;;5.83;3.20;;;9.90;99.90;;;;;;8318075;28;20189;-79
2022/05/19 04:08:08;;;;;;;5.13;3.00;;;10.70;99.90;;;;;;8331582;28;20197;-75
2022/05/19 04:12:09;;;;;;;4.87;2.87;;;11.70;1.00;;;;;;8329909;28;20187;-75
2022/05/19 04:16:10;;;;;;;6.53;3.50;;;12.50;99.90;;;;;;8319430;28;20272;-74
2022/05/19 04:20:12;;;;;;;5.23;3.77;;;12.70;99.90;;;;;;8322235;28;20232;-76
2022/05/19 04:24:13;;;;;;;4.63;3.17;;;12.80;99.90;;;;;;8347444;28;20189;-76
2022/05/19 04:28:15;;;;;;;5.60;3.10;;;13.30;99.90;;;;;;8350800;28;20230;-74
2022/05/19 04:32:17;;;;;;;6.57;3.33;;;13.20;99.90;;;;;;8331338;28;20494;-75
2022/05/19 04:36:17;;;;;;;7.07;3.63;;;13.40;99.90;;;;;;8332657;28;20212;-76
2022/05/19 04:40:19;;;;;;;4.93;3.23;;;13.30;99.90;;;;;;8328465;28;20328;-76
2022/05/19 04:44:20;;;;;;;6.10;3.30;;;13.60;99.90;;;;;;8325899;28;20208;-77
2022/05/19 04:48:22;;;;;;;6.33;3.67;;;14.00;99.90;;;;;;8337488;28;20190;-80
2022/05/19 04:52:23;;;;;;;7.80;5.07;;;14.70;99.90;;;;;;8322916;28;20194;-77
2022/05/19 04:56:24;;;;;;;9.73;5.23;;;14.80;99.90;;;;;;8333818;28;20295;-75
2022/05/19 05:00:25;;;;;;;8.47;5.90;;;14.80;99.90;;;;;;8329758;28;20182;-76
2022/05/19 05:04:26;;;;;;;11.93;8.23;;;14.60;99.90;;;;;;8329202;28;20193;-80
2022/05/19 05:08:27;;;;;;;13.63;9.27;;;14.10;99.90;;;;;;8327067;28;20190;-75
2022/05/19 05:12:28;;;;;;;10.50;6.83;;;13.40;1.00;;;;;;8322116;28;20193;-79
2022/05/19 05:16:28;;;;;;;11.60;6.33;;;13.00;1.00;;;;;;8330647;28;20218;-76
2022/05/19 05:20:29;;;;;;;11.93;6.70;;;12.90;1.00;;;;;;8328210;28;20197;-75
2022/05/19 05:24:31;;;;;;;12.73;7.87;;;13.00;47.90;;;;;;8338456;28;20190;-75
2022/05/19 05:28:33;;;;;;;12.73;8.03;;;13.10;36.10;;;;;;8323078;28;20230;-79
2022/05/19 05:32:35;;;;;;;12.57;6.97;;;13.20;78.50;;;;;;8326185;28;20273;-77
2022/05/19 05:36:36;;;;;;;9.73;7.23;;;13.50;11.10;;;;;;8329896;28;20272;-80
2022/05/19 05:40:36;;;;;;;14.80;9.77;;;13.80;92.00;;;;;;8322105;28;20202;-74
2022/05/19 05:44:37;;;;;;;13.57;8.90;;;14.10;8.30;;;;;;8327250;28;20185;-78
2022/05/19 05:48:38;;;;;;;11.97;7.90;;;14.30;26.80;;;;;;8322901;28;20325;-79
2022/05/19 05:52:39;;;;;;;13.13;6.57;;;14.70;1.00;;;;;;8318847;28;20193;-75
2022/05/19 05:56:40;;;;;;;8.57;5.20;;;15.00;21.10;;;;;;8327776;28;20210;-74
2022/05/19 06:00:42;;;;;;;7.87;5.47;;;15.30;1.00;;;;;;8344847;28;20227;-77
2022/05/19 06:04:42;;;;;;;8.47;4.37;;;15.60;1.00;;;;;;8325511;28;20181;-75
2022/05/19 06:08:44;;;;;;;4.43;3.30;;;15.90;1.00;;;;;;8321956;28;20193;-79
2022/05/19 06:12:45;;;;;;;5.60;2.87;;;16.20;99.90;;;;;;8335587;28;20194;-77
2022/05/19 06:16:46;;;;;;;2.63;1.80;;;16.60;99.90;;;;;;8317735;28;20213;-75
2022/05/19 06:20:47;;;;;;;1.70;1.60;;;16.90;99.90;;;;;;8322678;28;20219;-77
2022/05/19 06:24:49;;;;;;;2.43;1.40;;;17.40;99.90;;;;;;8318858;28;20282;-75
2022/05/19 06:28:50;;;;;;;3.07;1.07;;;17.70;26.90;;;;;;8327331;28;20202;-76
2022/05/19 06:32:51;;;;;;;2.40;1.17;;;18.00;1.00;;;;;;8321427;28;20200;-75
2022/05/19 06:36:52;;;;;;;3.37;1.30;;;18.20;1.00;;;;;;8328272;28;20217;-76
2022/05/19 06:42:00;;;;;;;1.23;0.80;;;18.40;1.00;;;;;;8349240;28;20201;-75
2022/05/19 06:45:19;;;;;;;3.37;1.03;;;18.60;1.00;;;;;;8344739;28;20197;-76
2022/05/19 06:49:20;;;;;;;1.73;0.70;;;18.80;1.00;;;;;;8323029;28;20190;-75
2022/05/19 06:53:20;;;;;;;1.70;1.10;;;19.10;1.00;;;;;;8315452;28;20189;-76
2022/05/19 06:57:23;;;;;;;2.20;1.30;;;19.30;1.00;;;;;;8332387;28;20240;-75
2022/05/19 07:01:24;;;;;;;1.67;0.93;;;19.40;1.00;;;;;;8325951;28;20175;-76
2022/05/19 07:05:29;;;;;;;4.83;1.07;;;19.40;1.00;;;;;;8319248;28;20196;-77
2022/05/19 07:09:31;;;;;;;3.37;1.20;;;19.50;1.00;;;;;;8319102;28;20189;-76
2022/05/19 07:13:32;;;;;;;1.03;0.90;;;19.70;1.00;;;;;;8327499;28;20644;-75
2022/05/19 07:17:33;;;;;;;4.07;0.97;;;20.00;1.00;;;;;;8319389;28;20206;-75
2022/05/19 07:21:35;;;;;;;2.17;1.10;;;20.10;1.00;;;;;;8318396;28;20281;-78
2022/05/19 07:25:36;;;;;;;3.60;1.10;;;20.20;1.00;;;;;;8335731;28;20251;-79
2022/05/19 07:29:37;;;;;;;1.63;1.10;;;20.40;1.00;;;;;;8329563;28;20225;-79
2022/05/19 07:33:38;;;;;;;4.57;1.00;;;20.50;1.00;;;;;;8336328;28;20182;-75
2022/05/19 07:37:39;;;;;;;4.03;1.07;;;20.60;1.00;;;;;;8322827;28;20296;-77
2022/05/19 07:41:43;;;;;;;2.20;1.03;;;20.70;1.00;;;;;;8332466;28;20194;-76
2022/05/19 07:45:44;;;;;;;2.77;1.13;;;20.90;1.00;;;;;;8321319;28;20490;-76
2022/05/19 07:49:47;;;;;;;2.07;1.20;;;21.00;1.00;;;;;;8320819;28;20189;-77
2022/05/19 07:53:49;;;;;;;1.37;0.90;;;21.10;1.00;;;;;;8324577;28;20220;-76
2022/05/19 07:57:49;;;;;;;3.20;1.00;;;21.30;1.00;;;;;;8326479;28;20194;-76
2022/05/19 08:01:51;;;;;;;2.53;1.30;;;21.50;1.00;;;;;;8324526;28;20210;-79
2022/05/19 08:05:52;;;;;;;2.00;0.83;;;21.50;1.00;;;;;;8346043;28;20197;-76
2022/05/19 08:18:33;;;;;;;1.27;0.67;;;22.00;1.00;;;;;;8346959;28;20325;-81
2022/05/19 08:22:34;;;;;;;4.67;1.10;;;22.00;1.00;;;;;;8343796;28;20173;-75
2022/05/19 08:26:35;;;;;;;3.20;1.10;;;22.20;1.00;;;;;;8343875;28;20182;-75
2022/05/19 08:30:36;;;;;;;2.07;0.93;;;22.20;1.00;;;;;;8336092;28;20194;-79
2022/05/19 08:34:36;;;;;;;1.70;1.10;;;22.20;1.00;;;;;;8323378;28;20300;-75
2022/05/19 08:38:38;;;;;;;2.53;1.07;;;22.40;1.00;;;;;;8343085;28;20216;-76
2022/05/19 08:42:45;;;;;;;1.60;1.20;;;22.30;1.00;;;;;;8346201;28;20182;-76
2022/05/19 08:46:50;;;;;;;2.40;1.10;;;22.40;1.00;;;;;;8349501;28;20197;-78
2022/05/19 08:51:00;;;;;;;3.40;1.30;;;22.50;1.00;;;;;;8318430;28;20190;-79
2022/05/19 08:55:01;;;;;;;2.30;1.40;;;22.80;1.00;;;;;;8332869;28;20305;-77
2022/05/19 08:59:13;;;;;;;2.57;1.20;;;23.10;1.00;;;;;;8325583;28;20213;-77
2022/05/19 09:03:20;;;;;;;3.37;1.20;;;23.30;1.00;;;;;;8340417;28;20188;-75
2022/05/19 09:07:57;;;;;;;4.57;1.43;;;23.30;1.00;;;;;;8344092;28;20221;-76
2022/05/19 09:12:04;;;;;;;2.70;1.50;;;23.40;1.00;;;;;;8346011;28;20268;-76
2022/05/19 09:16:12;;;;;;;2.40;1.43;;;23.70;1.00;;;;;;8327456;28;20186;-76
2022/05/19 09:20:33;;;;;;;4.83;1.50;;;23.80;1.00;;;;;;8339380;28;20244;-75
2022/05/19 09:24:35;;;;;;;2.80;1.27;;;23.90;1.00;;;;;;8329935;28;20196;-79
2022/05/19 09:28:36;;;;;;;1.93;1.20;;;24.10;1.00;;;;;;8332835;28;20225;-81
2022/05/19 09:32:45;;;;;;;1.87;1.30;;;24.20;1.00;;;;;;8332107;28;20186;-76
2022/05/19 09:37:07;;;;;;;1.83;1.20;;;24.30;1.00;;;;;;8331037;28;20210;-77
2022/05/19 09:41:25;;;;;;;11.97;1.63;;;24.50;1.00;;;;;;8341782;28;20256;-77
2022/05/19 09:45:29;;;;;;;3.27;1.60;;;24.50;1.00;;;;;;8336949;28;20216;-78
2022/05/19 09:49:33;;;;;;;4.10;1.40;;;24.60;1.00;;;;;;8329782;28;20178;-79
2022/05/19 09:53:46;;;;;;;2.77;1.17;;;24.70;1.00;;;;;;8325480;28;20236;-79
2022/05/19 09:58:00;;;;;;;2.43;1.43;;;24.80;1.00;;;;;;8356264;28;20209;-81
2022/05/19 10:02:16;;;;;;;3.73;1.10;;;24.90;1.00;;;;;;8319353;28;20182;-76
2022/05/19 10:06:22;;;;;;;4.53;1.63;;;25.00;1.00;;;;;;8323734;28;20182;-77
2022/05/19 10:10:29;;;;;;;6.67;1.67;;;25.00;1.00;;;;;;8327541;28;20205;-81
2022/05/19 10:14:32;;;;;;;2.47;1.30;;;25.10;1.00;;;;;;8329696;28;20182;-81
2022/05/19 10:19:02;;;;;;;8.10;1.60;;;25.30;1.00;;;;;;8323218;28;20649;-77
2022/05/19 10:23:35;;;;;;;3.83;1.47;;;25.40;1.00;;;;;;8319950;28;20191;-77
2022/05/19 10:33:09;;;;;;;2.63;1.50;;;25.40;1.00;;;;;;8342260;28;20247;-77
2022/05/19 10:37:22;;;;;;;2.10;1.40;;;25.60;1.00;;;;;;8322382;28;20312;-76
2022/05/19 10:41:42;;;;;;;2.37;1.60;;;25.60;1.00;;;;;;8337928;28;20230;-80
2022/05/19 10:45:47;;;;;;;3.03;1.27;;;25.60;1.00;;;;;;8339273;28;20255;-81
2022/05/19 10:50:05;;;;;;;6.55;1.52;;;25.70;1.00;;;;;;8322887;28;20194;-81
2022/05/19 10:54:15;;;;;;;2.67;1.40;;;25.80;1.00;;;;;;8335996;28;20186;-81
2022/05/19 10:58:37;;;;;;;2.22;1.42;;;25.80;1.00;;;;;;8348589;28;20241;-77
2022/05/19 11:02:57;;;;;;;4.22;1.58;;;25.90;1.00;;;;;;8322695;28;20180;-81
2022/05/19 11:07:10;;;;;;;1.17;1.00;;;26.00;1.00;;;;;;8338784;28;20185;-76
2022/05/19 11:11:37;;;;;;;2.03;1.20;;;26.10;1.00;;;;;;8321662;28;20225;-77
2022/05/19 11:15:50;;;;;;;4.65;1.20;;;26.30;1.00;;;;;;8325308;28;20186;-77
2022/05/19 11:20:03;;;;;;;1.73;1.17;;;26.30;1.00;;;;;;8337544;28;20206;-81
2022/05/19 11:24:14;;;;;;;1.80;1.20;;;26.30;1.00;;;;;;8333998;28;20266;-82
2022/05/19 11:28:46;;;;;;;1.33;1.20;;;26.30;1.00;;;;;;8345196;28;20198;-81
2022/05/19 11:32:53;;;;;;;2.55;1.13;;;26.50;1.00;;;;;;8325795;28;20190;-80
2022/05/19 11:37:14;;;;;;;2.75;1.10;;;26.60;1.00;;;;;;8327530;28;20347;-78
2022/05/19 11:41:28;;;;;;;3.85;1.33;;;26.70;1.00;;;;;;8338366;28;20199;-77
2022/05/19 11:45:48;;;;;;;6.07;1.15;;;26.90;1.00;;;;;;8332628;28;20199;-80
2022/05/19 11:58:46;;;;;;;2.00;1.38;;;27.00;1.00;;;;;;8353693;28;20213;-78
2022/05/19 12:03:06;;;;;;;9.15;1.58;;;27.20;1.00;;;;;;8330363;28;20174;-81
2022/05/19 12:07:22;;;;;;;2.33;0.98;;;27.30;1.00;;;;;;8324919;28;20182;-82
2022/05/19 12:11:25;;;;;;;3.00;1.02;;;27.30;1.00;;;;;;8338826;28;20490;-79
2022/05/19 12:15:31;;;;;;;1.85;1.00;;;27.50;1.00;;;;;;8334283;28;20278;-81
2022/05/19 12:19:40;;;;;;;5.03;1.50;;;27.60;1.00;;;;;;8320612;28;20210;-79
2022/05/19 12:23:43;;;;;;;4.82;1.50;;;27.80;1.00;;;;;;8323597;28;20190;-78
2022/05/19 12:27:59;;;;;;;3.42;1.33;;;28.00;1.00;;;;;;8348801;28;20198;-77
2022/05/19 12:32:09;;;;;;;1.50;1.00;;;28.00;1.00;;;;;;8321191;28;20222;-77
2022/05/19 12:36:16;;;;;;;3.20;1.30;;;28.10;1.00;;;;;;8331180;28;20179;-77
2022/05/19 12:40:18;;;;;;;4.32;1.30;;;28.20;1.00;;;;;;8326913;28;20199;-79
2022/05/19 12:44:50;;;;;;;4.57;1.05;;;28.20;1.00;;;;;;8349266;28;20189;-80
2022/05/19 12:49:15;;;;;;;4.03;1.20;;;28.20;1.00;;;;;;8331860;28;20243;-79
2022/05/19 12:53:21;;;;;;;1.67;1.20;;;28.20;1.00;;;;;;8330911;28;20195;-78
2022/05/19 12:57:27;;;;;;;1.42;0.88;;;28.40;1.00;;;;;;8325385;28;20209;-77
2022/05/19 13:01:33;;;;;;;7.10;1.35;;;28.60;1.00;;;;;;8333198;28;20185;-80
2022/05/19 13:05:57;;;;;;;2.00;1.00;;;28.70;1.00;;;;;;8330952;28;20198;-80
2022/05/19 13:10:27;;;;;;;2.47;1.15;;;28.60;1.00;;;;;;8325272;28;20223;-77
2022/05/19 13:14:56;;;;;;;2.20;1.20;;;28.70;1.00;;;;;;8307589;28;20190;-78
2022/05/19 13:19:06;;;;;;;3.85;1.23;;;28.90;1.00;;;;;;8333951;28;20282;-77
2022/05/19 13:23:29;;;;;;;3.97;0.95;;;29.00;1.00;;;;;;8329278;28;20174;-81
2022/05/19 13:31:57;;;;;;;0.93;0.75;;;29.20;1.00;;;;;;8339324;28;20217;-80
2022/05/19 13:36:10;;;;;;;2.05;1.08;;;29.40;1.00;;;;;;8330448;28;20284;-78
2022/05/19 13:40:36;;;;;;;4.45;1.63;;;29.40;1.00;;;;;;8334866;28;20209;-80
2022/05/19 13:44:40;;;;;;;4.30;0.93;;;29.50;1.00;;;;;;8334486;28;20195;-78
2022/05/19 13:49:02;;;;;;;4.38;1.30;;;29.50;1.00;;;;;;8321129;28;20197;-78
2022/05/19 13:53:06;;;;;;;2.67;1.00;;;29.50;1.00;;;;;;8313835;28;20256;-76
2022/05/19 13:57:28;;;;;;;1.85;1.20;;;29.50;1.00;;;;;;8324133;28;20209;-79
2022/05/19 14:01:36;;;;;;;3.38;1.63;;;29.60;1.00;;;;;;8325059;28;20177;-77
2022/05/19 14:05:40;;;;;;;1.13;0.85;;;29.30;1.00;;;;;;8328642;28;20227;-80
2022/05/19 14:09:46;;;;;;;8.27;1.15;;;29.20;1.00;;;;;;8336592;28;20179;-77
2022/05/19 14:13:53;;;;;;;1.45;1.10;;;29.30;1.00;;;;;;8322876;28;20463;-78
2022/05/19 14:18:01;;;;;;;3.05;1.42;;;29.30;1.00;;;;;;8333121;28;20261;-81
2022/05/19 14:22:02;;;;;;;4.20;1.20;;;29.40;1.00;;;;;;8324180;28;20190;-77
2022/05/19 14:26:07;;;;;;;2.25;1.08;;;29.60;1.00;;;;;;8319659;28;20238;-79
2022/05/19 14:30:15;;;;;;;5.10;1.05;;;29.80;1.00;;;;;;8329567;28;20592;-79
2022/05/19 14:34:45;;;;;;;1.38;1.05;;;29.80;1.00;;;;;;8333409;28;20186;-77
2022/05/19 14:38:52;;;;;;;3.80;1.10;;;29.70;1.00;;;;;;8302699;28;20222;-77
2022/05/19 14:43:05;;;;;;;3.60;0.90;;;29.40;1.00;;;;;;8325670;28;20186;-81
2022/05/19 14:47:19;;;;;;;2.53;1.00;;;29.30;1.00;;;;;;8324007;28;20182;-79
2022/05/19 14:51:34;;;;;;;4.38;1.00;;;29.20;1.00;;;;;;8327856;28;20230;-81
2022/05/19 14:55:40;;;;;;;2.15;1.20;;;29.10;1.00;;;;;;8322444;28;20179;-79
2022/05/19 14:59:55;;;;;;;1.83;1.10;;;29.10;1.00;;;;;;8325724;28;20275;-82
2022/05/19 15:03:56;;;;;;;5.10;0.98;;;29.00;1.00;;;;;;8332059;28;20179;-80
2022/05/19 15:08:02;;;;;;;3.60;1.13;;;29.10;1.00;;;;;;8328311;28;20186;-79
2022/05/19 15:12:04;;;;;;;2.10;1.08;;;29.20;1.00;;;;;;8306694;28;20202;-77
2022/05/19 15:16:04;;;;;;;3.30;1.08;;;29.20;1.00;;;;;;8324677;28;20205;-77
2022/05/19 15:20:08;;;;;;;0.95;0.80;;;29.30;1.00;;;;;;8323861;28;20220;-79
2022/05/19 15:24:11;;;;;;;3.00;0.90;;;29.20;1.00;;;;;;8323625;28;20422;-77
2022/05/19 15:28:14;;;;;;;5.68;0.98;;;29.10;1.00;;;;;;8317904;28;20237;-77
2022/05/19 15:32:15;;;;;;;3.17;0.90;;;29.10;1.00;;;;;;8321712;28;20207;-77
2022/05/19 15:36:17;;;;;;;2.65;0.90;;;29.00;1.00;;;;;;8344038;28;20253;-77
2022/05/19 15:40:21;;;;;;;1.30;0.90;;;29.00;1.00;;;;;;8325784;28;20217;-81
2022/05/19 15:44:21;;;;;;;4.88;1.48;;;29.00;1.00;;;;;;8320639;28;20191;-79
2022/05/19 15:48:23;;;;;;;3.08;1.70;;;29.00;1.00;;;;;;8329845;28;20301;-79
2022/05/19 15:52:24;;;;;;;4.50;1.27;;;28.90;1.00;;;;;;8319497;28;20183;-77
2022/05/19 15:56:25;;;;;;;1.45;0.80;;;28.80;99.90;;;;;;8320487;28;20179;-79
2022/05/19 16:00:26;;;;;;;2.20;1.20;;;28.60;1.00;;;;;;8324524;28;20189;-79
2022/05/19 16:04:28;;;;;;;1.25;0.95;;;28.70;1.00;;;;;;8346054;28;20213;-79
2022/05/19 16:08:30;;;;;;;3.97;1.33;;;28.50;1.00;;;;;;8325920;28;20256;-82
2022/05/19 16:12:31;;;;;;;3.78;0.90;;;28.40;1.00;;;;;;8335045;28;20174;-77
2022/05/19 16:16:32;;;;;;;3.28;1.27;;;28.40;1.00;;;;;;8322140;28;20234;-77
2022/05/19 16:20:34;;;;;;;3.47;1.15;;;28.50;1.00;;;;;;8342532;28;20181;-77
2022/05/19 16:24:36;;;;;;;1.38;0.90;;;28.70;1.00;;;;;;8327303;28;20190;-78
2022/05/19 16:28:37;;;;;;;1.73;0.90;;;28.90;99.90;;;;;;8325173;28;20374;-77
2022/05/19 16:32:38;;;;;;;4.15;0.90;;;28.80;99.90;;;;;;8332729;28;20190;-81
2022/05/19 16:36:39;;;;;;;1.67;0.80;;;28.80;99.90;;;;;;8330440;28;20185;-80
2022/05/19 16:40:40;;;;;;;2.92;0.90;;;28.70;99.90;;;;;;8335614;28;20210;-77
2022/05/19 16:44:41;;;;;;;1.70;0.90;;;28.50;99.90;;;;;;8329362;28;20182;-81
2022/05/19 16:48:44;;;;;;;3.45;0.93;;;28.30;99.90;;;;;;8328483;28;20214;-79
2022/05/19 16:52:45;;;;;;;2.22;0.93;;;28.10;99.90;;;;;;8335300;28;20178;-79
2022/05/19 17:01:09;;;;;;;3.60;1.08;;;27.90;99.90;;;;;;8344201;28;20231;-77
2022/05/19 17:05:10;;;;;;;4.63;1.25;;;27.70;99.90;;;;;;8321445;28;20182;-78
2022/05/19 17:09:11;;;;;;;1.60;1.25;;;27.50;99.90;;;;;;8326816;28;20214;-81
2022/05/19 17:13:16;;;;;;;2.42;1.13;;;27.40;1.00;;;;;;8326892;28;20467;-77
2022/05/19 17:17:18;;;;;;;5.65;1.30;;;27.40;1.00;;;;;;8320492;28;20217;-79
2022/05/19 17:21:21;;;;;;;1.17;0.90;;;27.30;1.00;;;;;;8332786;28;20186;-77
2022/05/19 17:25:23;;;;;;;3.00;1.13;;;27.40;1.00;;;;;;8327609;28;20186;-76
2022/05/19 17:29:24;;;;;;;3.03;1.08;;;27.40;1.00;;;;;;8334240;28;20288;-77
2022/05/19 17:33:25;;;;;;;1.38;1.00;;;27.20;1.00;;;;;;8334391;28;20202;-79
2022/05/19 17:37:27;;;;;;;2.92;1.00;;;26.90;1.00;;;;;;8332630;28;20265;-77
2022/05/19 17:41:28;;;;;;;2.50;1.10;;;26.80;1.00;;;;;;8336356;28;20687;-77
2022/05/19 17:45:29;;;;;;;4.07;1.10;;;27.10;1.00;;;;;;8347654;28;20188;-77
2022/05/19 17:49:30;;;;;;;2.95;1.00;;;27.20;1.00;;;;;;8332389;28;20298;-77
2022/05/19 17:53:31;;;;;;;2.47;1.10;;;26.80;1.00;;;;;;8323154;28;20174;-76
2022/05/19 17:57:32;;;;;;;1.42;0.98;;;26.20;1.00;;;;;;8340569;28;20194;-78
2022/05/19 18:01:34;;;;;;;2.00;1.10;;;25.60;1.00;;;;;;8345406;28;20178;-77
2022/05/19 18:05:36;;;;;;;2.43;1.17;;;25.10;1.00;;;;;;8326114;28;20181;-80
2022/05/19 18:09:37;;;;;;;1.60;1.23;;;24.70;1.00;;;;;;8327073;28;20287;-77
2022/05/19 18:13:38;;;;;;;1.77;1.67;;;24.20;1.00;;;;;;8322458;28;20242;-80
2022/05/19 18:21:58;;;;;;;2.73;2.00;;;23.40;1.00;;;;;;8341371;28;20233;-80
2022/05/19 18:26:02;;;;;;;4.47;4.07;;;22.90;1.00;;;;;;8340167;28;20264;-78
2022/05/19 18:30:05;;;;;;;3.13;2.93;;;22.40;1.00;;;;;;8317540;28;20242;-79
2022/05/19 18:34:06;;;;;;;4.80;3.37;;;22.00;1.00;;;;;;8316617;28;20205;-77
2022/05/19 18:38:10;;;;;;;4.93;4.23;;;21.50;1.00;;;;;;8342122;28;20181;-75
2022/05/19 18:46:30;;;;;;;4.80;4.30;;;20.90;1.00;;;;;;8341576;28;20192;-77
2022/05/19 18:50:31;;;;;;;4.97;3.90;;;20.60;1.00;;;;;;8338611;28;20206;-75
2022/05/19 18:54:32;;;;;;;5.80;4.97;;;20.30;1.00;;;;;;8340132;28;20269;-76
2022/05/19 18:58:35;;;;;;;10.60;8.57;;;20.00;1.00;;;;;;8319796;28;20195;-75
2022/05/19 19:02:36;;;;;;;7.63;6.20;;;19.70;1.00;;;;;;8336894;28;20189;-79
2022/05/19 19:06:37;;;;;;;11.57;8.40;;;19.40;1.00;;;;;;8327155;28;20189;-76
2022/05/19 19:10:38;;;;;;;25.03;16.27;;;19.10;1.00;;;;;;8331369;28;20178;-75
2022/05/19 19:14:39;;;;;;;15.43;10.77;;;18.80;13.30;;;;;;8336716;28;20178;-77
2022/05/19 19:18:41;;;;;;;12.23;8.30;;;18.60;88.40;;;;;;8338731;28;20190;-78
2022/05/19 19:22:42;;;;;;;7.27;5.13;;;18.40;99.90;;;;;;8321102;28;20281;-77
2022/05/19 19:26:46;;;;;;;4.47;3.37;;;18.20;99.90;;;;;;8344913;28;20208;-79
2022/05/19 19:30:48;;;;;;;2.87;2.17;;;18.10;99.90;;;;;;8324953;28;20205;-79
2022/05/19 19:34:49;;;;;;;2.30;1.90;;;18.00;99.90;;;;;;8324971;28;20178;-79
2022/05/19 19:38:51;;;;;;;2.10;1.87;;;17.90;99.90;;;;;;8318485;28;20202;-77
2022/05/19 19:42:52;;;;;;;2.70;1.50;;;17.80;99.90;;;;;;8329495;28;20189;-79
2022/05/19 19:46:53;;;;;;;2.80;1.60;;;17.70;99.90;;;;;;8331959;28;20181;-79
2022/05/19 19:55:15;;;;;;;2.27;1.67;;;17.40;99.90;;;;;;8341318;28;20189;-79
2022/05/19 19:59:17;;;;;;;4.70;1.70;;;17.20;99.90;;;;;;8333756;28;20226;-79
2022/05/19 20:03:19;;;;;;;4.43;2.17;;;17.10;99.90;;;;;;8344978;28;20190;-79
2022/05/19 20:07:20;;;;;;;4.00;2.70;;;16.90;99.90;;;;;;8333880;28;20234;-78
2022/05/19 20:11:21;;;;;;;4.57;2.40;;;16.80;99.90;;;;;;8329780;28;20177;-78
2022/05/19 20:15:22;;;;;;;5.13;1.87;;;16.60;99.90;;;;;;8329598;28;20178;-80
2022/05/19 20:19:23;;;;;;;3.30;2.00;;;16.50;99.90;;;;;;8341342;28;20614;-78
2022/05/19 20:23:24;;;;;;;2.37;1.83;;;16.30;1.00;;;;;;8324736;28;20268;-79
2022/05/19 20:27:27;;;;;;;4.73;2.30;;;16.10;1.00;;;;;;8331102;28;20218;-78
2022/05/19 20:31:30;;;;;;;3.97;1.93;;;16.00;1.00;;;;;;8348183;28;20170;-79
2022/05/19 20:35:31;;;;;;;4.87;2.37;;;15.80;1.00;;;;;;8335988;28;20179;-78
2022/05/19 20:39:32;;;;;;;3.60;2.63;;;15.70;1.00;;;;;;8325583;28;20595;-79
2022/05/19 20:43:34;;;;;;;5.00;3.33;;;15.60;1.00;;;;;;8332242;28;20189;-79
2022/05/19 20:47:35;;;;;;;3.50;2.60;;;15.50;1.00;;;;;;8324296;28;20198;-79
2022/05/19 20:51:36;;;;;;;5.70;2.43;;;15.40;1.00;;;;;;8324133;28;20189;-78
2022/05/19 20:55:37;;;;;;;3.93;2.57;;;15.30;1.00;;;;;;8348952;28;20190;-79
2022/05/19 20:59:39;;;;;;;4.70;3.00;;;15.20;22.60;;;;;;8334038;28;20186;-78
2022/05/19 21:03:40;;;;;;;3.63;2.60;;;15.00;93.60;;;;;;8328489;28;20214;-78
2022/05/19 21:07:43;;;;;;;4.50;2.90;;;15.00;93.10;;;;;;8319711;28;20239;-79
2022/05/19 21:11:43;;;;;;;4.57;3.03;;;14.90;92.40;;;;;;8339933;28;20174;-79
2022/05/19 21:15:45;;;;;;;4.70;2.80;;;14.80;99.90;;;;;;8332796;28;20183;-78
2022/05/19 21:19:45;;;;;;;5.53;3.40;;;14.80;99.90;;;;;;8339939;28;20658;-78
2022/05/19 21:28:06;;;;;;;6.43;3.33;;;14.70;99.90;;;;;;8345980;28;20260;-77
2022/05/19 21:32:08;;;;;;;5.33;3.50;;;14.60;99.90;;;;;;8340744;28;20197;-79
2022/05/19 21:36:09;;;;;;;10.70;5.70;;;14.60;99.90;;;;;;8342048;28;20177;-77
2022/05/19 21:40:11;;;;;;;15.37;5.83;;;14.60;99.90;;;;;;8333034;28;20234;-78
2022/05/19 21:44:12;;;;;;;14.13;6.67;;;14.60;99.90;;;;;;8320181;28;20222;-78
2022/05/19 21:48:14;;;;;;;9.07;5.53;;;14.50;99.90;;;;;;8323384;28;20210;-78
2022/05/19 21:56:34;;;;;;;7.43;3.90;;;14.60;99.90;;;;;;8342461;28;20221;-78
2022/05/19 22:00:38;;;;;;;7.23;4.17;;;14.80;99.90;;;;;;8331983;28;20280;-78
2022/05/19 22:04:38;;;;;;;5.47;3.77;;;14.70;99.90;;;;;;8342807;28;20187;-77
2022/05/19 22:08:42;;;;;;;5.27;3.27;;;14.70;99.90;;;;;;8341930;28;20245;-77
2022/05/19 22:12:44;;;;;;;3.00;2.67;;;14.80;99.90;;;;;;8311745;28;20313;-78
2022/05/19 22:16:45;;;;;;;3.17;2.70;;;15.00;55.50;;;;;;8328856;28;20247;-78
2022/05/19 22:20:46;;;;;;;3.40;2.23;;;15.20;1.00;;;;;;8302172;28;20206;-78
2022/05/19 22:24:47;;;;;;;2.80;2.07;;;15.50;1.00;;;;;;8334886;28;20493;-78